Time;durP1;ratioP1;P1;durP2;ratioP2;P2;SDS_P1;SDS_P2;PMS_P1;PMS_P2;Temp;Humidity;BMP_temperature;BMP_pressure;BME280_temperature;BME280_humidity;BME280_pressure;Samples;Min_cycle;Max_cycle;Signal;HPM_P1;HPM_P2
2021/05/21 00:00:10;;;;;;;4.13;1.90;;;;;;;10.87;63.67;98927.59;5052306;28;20025;-59
2021/05/21 00:02:35;;;;;;;2.50;1.63;;;;;;;10.81;63.83;98920.56;5052841;28;20039;-59
2021/05/21 00:05:01;;;;;;;3.42;1.95;;;;;;;10.78;64.40;98918.38;5051295;28;20021;-59
2021/05/21 00:07:26;;;;;;;6.38;1.70;;;;;;;10.73;64.13;98912.97;5052494;28;20052;-60
2021/05/21 00:09:51;;;;;;;3.83;1.77;;;;;;;10.67;65.15;98909.41;5052614;28;20036;-59
2021/05/21 00:12:17;;;;;;;3.17;1.90;;;;;;;10.63;64.96;98902.13;5034486;28;20044;-59
2021/05/21 00:14:42;;;;;;;2.58;1.60;;;;;;;10.64;64.32;98909.94;5044994;28;20026;-59
2021/05/21 00:17:08;;;;;;;4.60;2.00;;;;;;;10.66;63.69;98904.28;5049750;28;20491;-59
2021/05/21 00:19:33;;;;;;;3.00;1.70;;;;;;;10.63;63.92;98902.13;5052656;28;20090;-59
2021/05/21 00:21:58;;;;;;;3.28;1.83;;;;;;;10.56;64.78;98900.47;5035994;28;20029;-59
2021/05/21 00:24:24;;;;;;;2.88;1.70;;;;;;;10.53;64.04;98887.56;5032771;28;20021;-59
2021/05/21 00:26:50;;;;;;;4.20;1.73;;;;;;;10.50;64.50;98885.38;5032434;28;20403;-59
2021/05/21 00:29:17;;;;;;;2.08;1.50;;;;;;;10.47;64.54;98872.47;5032610;28;20032;-59
2021/05/21 00:31:42;;;;;;;5.43;1.70;;;;;;;10.34;64.78;98862.16;5032330;28;20041;-59
2021/05/21 00:34:08;;;;;;;2.25;1.60;;;;;;;10.32;65.25;98858.91;5032712;28;20025;-58
2021/05/21 00:36:33;;;;;;;3.40;1.80;;;;;;;10.28;65.29;98863.13;5031049;28;20096;-59
2021/05/21 00:38:59;;;;;;;2.63;1.70;;;;;;;10.28;65.21;98863.97;5031441;28;20026;-59
2021/05/21 00:41:26;;;;;;;2.28;1.60;;;;;;;10.24;65.65;98862.00;5032106;28;20053;-59
2021/05/21 00:43:52;;;;;;;2.42;1.63;;;;;;;10.32;65.11;98848.19;5032463;28;20029;-58
2021/05/21 00:46:17;;;;;;;3.33;1.50;;;;;;;10.24;65.05;98852.09;5032105;28;20489;-59
2021/05/21 00:48:43;;;;;;;2.15;1.60;;;;;;;10.17;65.35;98846.09;5032406;28;20034;-59
2021/05/21 00:51:08;;;;;;;2.40;1.67;;;;;;;10.24;65.06;98853.97;5031086;28;20034;-59
2021/05/21 00:53:33;;;;;;;2.72;1.77;;;;;;;10.17;65.29;98845.28;5031441;28;20021;-59
2021/05/21 00:55:59;;;;;;;1.73;1.63;;;;;;;10.10;65.57;98829.41;5014518;28;20384;-59
2021/05/21 00:58:25;;;;;;;2.13;1.55;;;;;;;10.13;65.16;98832.41;5031271;28;20375;-59
2021/05/21 01:00:52;;;;;;;1.50;1.35;;;;;;;10.18;64.92;98825.47;5038801;28;20033;-59
2021/05/21 01:03:17;;;;;;;3.25;1.70;;;;;;;10.15;65.27;98824.91;5052395;28;20021;-59
2021/05/21 01:05:42;;;;;;;3.78;1.70;;;;;;;10.14;65.02;98825.19;5051992;28;20037;-59
2021/05/21 01:08:08;;;;;;;5.40;1.58;;;;;;;10.11;64.96;98814.97;5052020;28;20397;-59
2021/05/21 01:10:33;;;;;;;5.13;1.92;;;;;;;10.00;65.73;98819.38;5050510;28;20040;-59
2021/05/21 01:12:59;;;;;;;1.92;1.70;;;;;;;9.90;66.48;98819.25;5052088;28;20045;-59
2021/05/21 01:15:24;;;;;;;5.20;2.00;;;;;;;9.71;68.40;98814.19;5053196;28;20063;-59
2021/05/21 01:17:50;;;;;;;2.00;1.75;;;;;;;9.50;69.57;98809.59;5055649;28;20036;-59
2021/05/21 01:20:15;;;;;;;3.92;1.70;;;;;;;9.44;69.68;98810.59;5055473;28;20040;-59
2021/05/21 01:22:41;;;;;;;2.63;1.50;;;;;;;9.44;68.62;98805.25;5055747;28;20032;-59
2021/05/21 01:25:07;;;;;;;2.38;1.50;;;;;;;9.53;67.90;98803.75;5055216;28;20455;-59
2021/05/21 01:27:33;;;;;;;2.72;1.70;;;;;;;9.53;68.23;98792.25;5055420;28;20040;-59
2021/05/21 01:29:58;;;;;;;1.95;1.48;;;;;;;9.54;68.14;98802.72;5055395;28;20021;-59
2021/05/21 01:32:23;;;;;;;3.40;1.90;;;;;;;9.38;70.21;98790.16;5053876;28;20041;-59
2021/05/21 01:34:49;;;;;;;4.65;1.98;;;;;;;9.24;70.32;98793.19;5055700;28;20035;-59
2021/05/21 01:37:15;;;;;;;3.55;2.10;;;;;;;9.20;70.61;98788.56;5037213;28;20087;-60
2021/05/21 01:39:41;;;;;;;3.40;1.70;;;;;;;9.11;70.62;98782.81;5055248;28;20468;-59
2021/05/21 01:42:06;;;;;;;3.53;1.80;;;;;;;9.14;71.07;98776.97;5054766;28;20059;-59
2021/05/21 01:44:32;;;;;;;2.10;1.65;;;;;;;9.24;69.66;98774.47;5055440;28;20456;-59
2021/05/21 01:46:57;;;;;;;4.78;1.70;;;;;;;9.26;69.12;98761.66;5054852;28;20033;-59
2021/05/21 01:49:23;;;;;;;3.28;1.60;;;;;;;9.39;69.36;98759.69;5055009;28;20517;-59
2021/05/21 01:51:57;;;;;;;4.18;1.90;;;;;;;9.33;69.80;98768.69;5054764;28;20040;-59
2021/05/21 01:54:23;;;;;;;3.55;1.50;;;;;;;9.38;68.76;98768.75;5055207;28;20094;-59
2021/05/21 01:56:51;;;;;;;3.53;1.70;;;;;;;9.35;68.79;98756.69;5054442;28;20033;-59
2021/05/21 01:59:17;;;;;;;2.83;1.45;;;;;;;9.39;69.44;98751.69;5054886;28;20036;-59
2021/05/21 02:01:42;;;;;;;3.70;1.60;;;;;;;9.66;66.71;98747.22;5054561;28;20041;-59
2021/05/21 02:04:07;;;;;;;6.93;1.60;;;;;;;9.66;67.51;98743.72;5055065;28;20032;-59
2021/05/21 02:06:37;;;;;;;2.80;1.58;;;;;;;9.77;66.18;98731.28;5054479;28;20060;-59
2021/05/21 02:09:03;;;;;;;3.15;1.48;;;;;;;9.79;66.08;98727.31;5054737;28;20041;-59
2021/05/21 02:11:29;;;;;;;3.15;1.40;;;;;;;9.77;66.36;98723.28;5071368;28;20088;-59
2021/05/21 02:13:54;;;;;;;4.15;1.60;;;;;;;9.77;66.88;98728.63;5074707;28;20024;-59
2021/05/21 02:16:19;;;;;;;2.38;1.60;;;;;;;9.83;66.08;98722.25;5074310;28;20513;-59
2021/05/21 02:18:45;;;;;;;4.68;1.58;;;;;;;9.89;66.13;98710.56;5074695;28;20028;-60
2021/05/21 02:21:10;;;;;;;2.42;1.40;;;;;;;10.01;65.60;98716.59;5073693;28;20036;-59
2021/05/21 02:23:36;;;;;;;1.77;1.42;;;;;;;10.08;65.51;98719.88;5074488;28;20024;-59
2021/05/21 02:26:01;;;;;;;1.55;1.40;;;;;;;10.19;64.98;98706.59;5074015;28;20043;-60
2021/05/21 02:28:27;;;;;;;4.35;1.52;;;;;;;10.21;64.52;98712.50;5074364;28;20039;-59
2021/05/21 02:30:52;;;;;;;3.50;1.67;;;;;;;10.27;64.45;98711.50;5074186;28;20475;-59
2021/05/21 02:33:17;;;;;;;3.13;1.38;;;;;;;10.14;65.31;98702.81;5074371;28;20531;-60
2021/05/21 02:35:43;;;;;;;2.50;1.40;;;;;;;10.15;65.07;98684.84;5074033;28;20056;-59
2021/05/21 02:38:08;;;;;;;4.63;1.40;;;;;;;10.09;65.70;98693.91;5074295;28;20405;-59
2021/05/21 02:40:34;;;;;;;7.03;1.55;;;;;;;10.03;65.72;98690.34;5073730;28;20071;-59
2021/05/21 02:42:59;;;;;;;3.10;1.70;;;;;;;10.11;65.15;98686.44;5074409;28;20032;-59
2021/05/21 02:45:25;;;;;;;2.65;1.30;;;;;;;10.09;65.31;98689.38;5073945;28;20028;-59
2021/05/21 02:47:50;;;;;;;3.35;1.40;;;;;;;10.01;65.53;98676.44;5073932;28;20367;-59
2021/05/21 02:50:15;;;;;;;2.90;1.45;;;;;;;9.98;65.71;98682.28;5073677;28;20035;-59
2021/05/21 02:52:41;;;;;;;5.25;1.50;;;;;;;9.91;65.88;98684.38;5074008;28;20029;-59
2021/05/21 02:55:06;;;;;;;4.00;1.40;;;;;;;9.92;66.15;98677.94;5072206;28;20024;-58
2021/05/21 02:57:32;;;;;;;1.90;1.30;;;;;;;10.03;65.28;98681.53;5074164;28;20016;-58
2021/05/21 02:59:57;;;;;;;4.65;1.50;;;;;;;9.95;65.87;98677.44;5073971;28;20020;-58
2021/05/21 03:02:23;;;;;;;4.45;1.55;;;;;;;9.90;66.00;98680.06;5073403;28;20441;-58
2021/05/21 03:04:49;;;;;;;3.35;1.60;;;;;;;9.91;66.01;98665.63;5072546;28;20096;-58
2021/05/21 03:07:14;;;;;;;3.20;1.42;;;;;;;9.85;66.18;98669.28;5073051;28;20048;-58
2021/05/21 03:09:40;;;;;;;1.75;1.40;;;;;;;9.94;65.34;98665.13;5072220;28;20059;-58
2021/05/21 03:12:07;;;;;;;2.05;1.40;;;;;;;9.91;65.54;98662.94;5073307;28;20033;-58
2021/05/21 03:14:32;;;;;;;3.75;1.50;;;;;;;9.93;65.18;98661.63;5073736;28;20025;-58
2021/05/21 03:16:59;;;;;;;3.10;1.50;;;;;;;9.90;65.58;98655.97;5073194;28;20375;-58
2021/05/21 03:19:24;;;;;;;2.85;1.30;;;;;;;9.91;65.64;98655.72;5073377;28;20514;-58
2021/05/21 03:21:50;;;;;;;2.17;1.27;;;;;;;9.86;65.67;98654.84;5072861;28;20041;-58
2021/05/21 03:24:15;;;;;;;1.98;1.45;;;;;;;9.86;65.62;98650.31;5073232;28;20028;-58
2021/05/21 03:26:41;;;;;;;1.90;1.30;;;;;;;9.86;65.67;98638.78;5073234;28;20040;-58
2021/05/21 03:29:06;;;;;;;3.20;1.40;;;;;;;9.88;65.49;98650.03;5073264;28;20036;-58
2021/05/21 03:31:31;;;;;;;3.55;1.80;;;;;;;9.89;65.77;98646.31;5072842;28;20036;-57
2021/05/21 03:33:57;;;;;;;1.92;1.38;;;;;;;9.92;65.40;98645.81;5073335;28;20031;-58
2021/05/21 03:36:22;;;;;;;3.05;1.52;;;;;;;9.86;66.11;98652.16;5072834;28;20052;-58
2021/05/21 03:38:48;;;;;;;3.15;1.50;;;;;;;9.86;65.91;98653.00;5072696;28;20410;-58
2021/05/21 03:41:13;;;;;;;1.85;1.33;;;;;;;10.00;65.31;98640.00;5072778;28;20041;-58
2021/05/21 03:43:39;;;;;;;2.42;1.40;;;;;;;10.04;64.92;98640.31;5073135;28;20020;-58
2021/05/21 03:46:04;;;;;;;4.38;1.55;;;;;;;10.04;65.32;98643.78;5071420;28;20035;-58
2021/05/21 03:48:29;;;;;;;2.80;1.30;;;;;;;10.00;65.55;98626.59;5072923;28;20075;-58
2021/05/21 03:50:55;;;;;;;2.95;1.50;;;;;;;10.02;65.50;98623.69;5072661;28;20059;-58
2021/05/21 03:53:20;;;;;;;1.85;1.15;;;;;;;10.06;65.38;98630.13;5073047;28;20070;-58
2021/05/21 03:55:46;;;;;;;2.95;1.50;;;;;;;10.08;65.62;98618.13;5073003;28;20039;-58
2021/05/21 03:58:11;;;;;;;1.40;1.30;;;;;;;10.13;65.03;98626.22;5073120;28;20028;-58
2021/05/21 04:00:37;;;;;;;1.48;1.38;;;;;;;10.18;64.74;98621.94;5072811;28;20048;-59
2021/05/21 04:03:05;;;;;;;4.10;1.50;;;;;;;10.24;64.09;98626.31;5072039;28;20035;-58
2021/05/21 04:05:32;;;;;;;3.55;1.90;;;;;;;10.28;64.38;98624.75;5071080;28;20499;-58
2021/05/21 04:07:58;;;;;;;1.90;1.40;;;;;;;10.31;63.99;98618.91;5071625;28;20433;-58
2021/05/21 04:10:23;;;;;;;1.98;1.30;;;;;;;10.31;64.40;98613.53;5072418;28;20459;-58
2021/05/21 04:12:48;;;;;;;3.90;1.50;;;;;;;10.39;63.77;98613.06;5071819;28;20020;-58
2021/05/21 04:15:14;;;;;;;3.13;1.40;;;;;;;10.34;64.12;98608.47;5072511;28;20025;-58
2021/05/21 04:17:39;;;;;;;1.80;1.30;;;;;;;10.39;64.11;98602.34;5072801;28;20108;-58
2021/05/21 04:20:05;;;;;;;2.70;1.20;;;;;;;10.41;63.79;98600.22;5072333;28;20040;-58
2021/05/21 04:22:31;;;;;;;4.03;1.42;;;;;;;10.40;64.39;98598.59;5072562;28;20063;-58
2021/05/21 04:24:56;;;;;;;3.13;1.40;;;;;;;10.41;64.29;98594.88;5071733;28;20024;-58
2021/05/21 04:27:22;;;;;;;2.92;1.70;;;;;;;10.50;64.60;98600.53;5072121;28;20036;-58
2021/05/21 04:29:47;;;;;;;3.10;1.40;;;;;;;10.47;64.54;98585.78;5072749;28;20364;-58
2021/05/21 04:32:13;;;;;;;3.67;1.50;;;;;;;10.45;64.78;98582.56;5070872;28;20494;-58
2021/05/21 04:34:38;;;;;;;2.25;1.38;;;;;;;10.52;63.86;98579.66;5072575;28;20024;-58
2021/05/21 04:37:04;;;;;;;2.63;1.33;;;;;;;10.61;63.67;98582.66;5070847;28;20040;-58
2021/05/21 04:39:29;;;;;;;3.47;1.67;;;;;;;10.68;63.71;98588.59;5072778;28;20047;-58
2021/05/21 04:41:54;;;;;;;4.55;1.45;;;;;;;10.73;63.20;98592.16;5072131;28;20463;-58
2021/05/21 04:44:20;;;;;;;2.90;1.40;;;;;;;10.76;63.06;98590.81;5072619;28;20032;-58
2021/05/21 04:46:45;;;;;;;1.83;1.30;;;;;;;10.78;62.74;98592.16;5072030;28;20032;-58
2021/05/21 04:49:11;;;;;;;1.95;1.15;;;;;;;10.78;63.25;98581.44;5072474;28;20505;-58
2021/05/21 04:51:37;;;;;;;7.32;1.50;;;;;;;10.82;63.13;98578.25;5075412;28;20047;-58
2021/05/21 04:54:03;;;;;;;3.05;1.60;;;;;;;10.91;62.74;98580.19;5076754;28;20032;-58
2021/05/21 04:56:28;;;;;;;4.68;1.40;;;;;;;10.89;62.90;98570.78;5076049;28;20060;-58
2021/05/21 04:58:54;;;;;;;3.33;1.42;;;;;;;11.06;62.13;98568.72;5076287;28;20025;-58
2021/05/21 05:01:19;;;;;;;2.45;1.40;;;;;;;11.17;62.47;98569.56;5075886;28;20036;-58
2021/05/21 05:03:45;;;;;;;3.38;1.40;;;;;;;11.13;61.89;98563.09;5076251;28;20047;-58
2021/05/21 05:06:11;;;;;;;1.77;1.30;;;;;;;11.12;62.36;98564.19;5075862;28;20075;-58
2021/05/21 05:08:36;;;;;;;3.63;1.60;;;;;;;11.17;61.87;98559.63;5075921;28;20142;-58
2021/05/21 05:11:01;;;;;;;4.07;1.40;;;;;;;11.25;61.57;98555.63;5075584;28;20037;-58
2021/05/21 05:13:27;;;;;;;5.25;1.50;;;;;;;11.30;61.72;98547.59;5076073;28;20025;-58
2021/05/21 05:15:52;;;;;;;3.10;1.25;;;;;;;11.38;61.69;98547.13;5075556;28;20079;-58
2021/05/21 05:18:18;;;;;;;3.42;1.50;;;;;;;11.20;62.01;98531.47;5076016;28;20036;-58
2021/05/21 05:20:45;;;;;;;2.85;1.23;;;;;;;11.27;61.34;98531.25;5074196;28;20487;-58
2021/05/21 05:23:10;;;;;;;7.35;1.50;;;;;;;11.20;62.22;98526.13;5075837;28;20081;-59
2021/05/21 05:25:36;;;;;;;1.92;1.20;;;;;;;11.32;62.06;98520.53;5075681;28;20542;-58
2021/05/21 05:28:01;;;;;;;1.80;1.30;;;;;;;11.35;62.13;98531.53;5074473;28;20033;-58
2021/05/21 05:30:27;;;;;;;4.05;1.35;;;;;;;11.27;62.18;98526.69;5074087;28;20097;-58
2021/05/21 05:32:52;;;;;;;2.47;1.23;;;;;;;11.31;62.37;98533.13;5074579;28;20128;-58
2021/05/21 05:35:18;;;;;;;1.80;1.35;;;;;;;11.39;62.04;98535.31;5075350;28;20470;-58
2021/05/21 05:37:43;;;;;;;2.78;1.40;;;;;;;11.34;62.98;98529.91;5075436;28;20106;-58
2021/05/21 05:40:09;;;;;;;1.90;1.23;;;;;;;11.46;62.16;98518.97;5075082;28;20025;-58
2021/05/21 05:42:35;;;;;;;3.95;1.42;;;;;;;11.48;62.03;98529.41;5075512;28;20021;-58
2021/05/21 05:45:00;;;;;;;3.05;1.30;;;;;;;11.44;62.50;98527.25;5075592;28;20029;-58
2021/05/21 05:47:25;;;;;;;3.65;1.58;;;;;;;11.44;62.86;98527.25;5075268;28;20041;-58
2021/05/21 05:49:51;;;;;;;4.75;1.60;;;;;;;11.50;61.79;98521.91;5075341;28;20020;-58
2021/05/21 05:52:17;;;;;;;3.25;1.50;;;;;;;11.59;61.64;98518.44;5074857;28;20119;-59
2021/05/21 05:54:43;;;;;;;3.60;1.60;;;;;;;11.70;61.12;98515.75;5075226;28;20021;-58
2021/05/21 05:57:08;;;;;;;4.65;1.50;;;;;;;11.93;60.94;98506.41;5074595;28;20037;-58
2021/05/21 05:59:34;;;;;;;3.70;1.45;;;;;;;11.82;60.70;98509.06;5074993;28;20126;-58
2021/05/21 06:01:59;;;;;;;2.15;1.50;;;;;;;11.93;61.18;98504.53;5073929;28;20379;-58
2021/05/21 06:04:25;;;;;;;3.83;1.33;;;;;;;12.00;61.71;98501.56;5074609;28;20075;-58
2021/05/21 06:06:51;;;;;;;4.25;1.50;;;;;;;12.35;60.64;98499.91;5074126;28;20037;-59
2021/05/21 06:09:16;;;;;;;2.92;1.40;;;;;;;12.30;61.18;98509.63;5074733;28;20070;-58
2021/05/21 06:11:42;;;;;;;4.47;1.60;;;;;;;12.18;59.94;98509.09;5072849;28;20067;-59
2021/05/21 06:14:07;;;;;;;2.03;1.70;;;;;;;12.52;59.51;98505.81;5074640;28;20339;-58
2021/05/21 06:16:33;;;;;;;4.70;1.60;;;;;;;12.61;59.30;98506.84;5074021;28;20047;-58
2021/05/21 06:18:59;;;;;;;2.50;1.30;;;;;;;12.72;59.22;98508.44;5074313;28;20382;-58
2021/05/21 06:21:24;;;;;;;3.38;1.58;;;;;;;12.60;59.26;98509.81;5073872;28;20418;-59
2021/05/21 06:23:50;;;;;;;2.05;1.40;;;;;;;12.47;59.94;98509.31;5074229;28;20482;-58
2021/05/21 06:28:41;;;;;;;2.67;1.42;;;;;;;12.65;58.24;98507.91;5074080;28;20032;-59
2021/05/21 06:31:07;;;;;;;2.75;1.40;;;;;;;12.75;58.09;98501.69;5073531;28;20040;-59
2021/05/21 06:33:33;;;;;;;2.45;1.42;;;;;;;12.52;59.22;98505.81;5072978;28;20210;-59
2021/05/21 06:35:58;;;;;;;4.25;1.40;;;;;;;12.61;58.62;98506.06;5072205;28;20045;-59
2021/05/21 06:38:24;;;;;;;4.55;1.40;;;;;;;12.37;59.21;98513.91;5073791;28;20024;-59
2021/05/21 06:40:49;;;;;;;6.85;1.80;;;;;;;12.34;58.57;98506.38;5073375;28;20051;-59
2021/05/21 06:43:15;;;;;;;5.78;1.55;;;;;;;12.42;58.62;98511.19;5073925;28;20028;-59
2021/05/21 06:45:40;;;;;;;2.85;1.50;;;;;;;12.31;58.88;98507.72;5073394;28;20097;-59
2021/05/21 06:48:06;;;;;;;1.77;1.30;;;;;;;12.43;58.86;98504.72;5072385;28;20044;-59
2021/05/21 06:50:32;;;;;;;6.57;1.63;;;;;;;12.35;58.30;98503.41;5072101;28;20036;-59
2021/05/21 06:52:57;;;;;;;3.60;1.40;;;;;;;12.45;58.77;98503.38;5073844;28;20020;-59
2021/05/21 06:55:23;;;;;;;4.53;1.75;;;;;;;12.39;59.26;98507.19;5073123;28;20544;-59
2021/05/21 06:57:48;;;;;;;4.70;1.65;;;;;;;12.49;58.46;98519.78;5073493;28;20073;-59
2021/05/21 07:00:14;;;;;;;3.65;1.60;;;;;;;12.33;57.53;98526.25;5073373;28;20129;-58
2021/05/21 07:02:40;;;;;;;3.80;1.58;;;;;;;12.47;58.11;98522.75;5073549;28;20016;-59
2021/05/21 07:05:06;;;;;;;4.32;1.80;;;;;;;12.46;58.51;98528.41;5072993;28;20027;-58
2021/05/21 07:07:32;;;;;;;5.32;1.73;;;;;;;12.50;58.67;98526.75;5071717;28;20048;-59
2021/05/21 07:09:59;;;;;;;6.20;1.60;;;;;;;12.42;57.29;98521.94;5073337;28;20031;-59
2021/05/21 07:12:24;;;;;;;7.13;1.95;;;;;;;12.50;57.89;98519.53;5072448;28;20037;-59
2021/05/21 07:14:50;;;;;;;3.28;1.70;;;;;;;12.45;59.38;98519.50;5073610;28;20471;-59
2021/05/21 07:17:15;;;;;;;4.53;1.63;;;;;;;12.32;59.04;98514.72;5073173;28;20368;-59
2021/05/21 07:19:41;;;;;;;2.30;1.60;;;;;;;12.26;58.72;98503.16;5073411;28;20355;-59
2021/05/21 07:22:06;;;;;;;5.03;1.70;;;;;;;12.37;58.35;98505.84;5073061;28;20441;-59
2021/05/21 07:24:32;;;;;;;3.75;1.80;;;;;;;12.58;58.04;98512.78;5073280;28;20111;-59
2021/05/21 07:26:57;;;;;;;6.10;1.85;;;;;;;12.83;57.84;98516.47;5072515;28;20060;-59
2021/05/21 07:29:23;;;;;;;5.07;1.52;;;;;;;13.02;56.81;98514.78;5073085;28;20375;-58
2021/05/21 07:31:48;;;;;;;4.93;1.80;;;;;;;13.02;56.75;98522.03;5072534;28;20383;-58
2021/05/21 07:34:14;;;;;;;5.78;1.90;;;;;;;13.20;56.00;98509.84;5071626;28;20393;-58
2021/05/21 07:36:39;;;;;;;4.70;1.60;;;;;;;13.58;55.36;98511.03;5071103;28;20031;-58
2021/05/21 07:39:05;;;;;;;3.95;1.60;;;;;;;13.42;55.29;98518.38;5073173;28;20493;-58
2021/05/21 07:41:30;;;;;;;4.43;2.58;;;;;;;13.43;55.73;98528.06;5072370;28;20028;-58
2021/05/21 07:43:57;;;;;;;4.53;1.70;;;;;;;13.35;54.27;98515.19;5072672;28;20532;-58
2021/05/21 07:46:23;;;;;;;6.32;1.90;;;;;;;13.59;54.00;98516.13;5072841;28;20383;-61
2021/05/21 07:48:51;;;;;;;6.32;1.90;;;;;;;13.73;53.18;98520.88;5072680;28;20028;-58
2021/05/21 07:51:18;;;;;;;4.10;1.75;;;;;;;13.88;53.35;98528.84;5072349;28;20112;-58
2021/05/21 07:53:43;;;;;;;5.53;1.90;;;;;;;13.99;51.64;98524.97;5072838;28;20498;-59
2021/05/21 07:56:09;;;;;;;7.50;1.92;;;;;;;14.37;50.67;98503.63;5072522;28;20033;-59
2021/05/21 07:58:34;;;;;;;5.43;1.80;;;;;;;14.44;51.72;98506.78;5072782;28;20020;-59
2021/05/21 08:01:00;;;;;;;6.00;2.17;;;;;;;14.97;47.75;98511.34;5070943;28;20399;-59
2021/05/21 08:03:25;;;;;;;3.90;1.63;;;;;;;16.09;43.93;98521.69;5071456;28;20032;-59
2021/05/21 08:05:51;;;;;;;6.18;1.90;;;;;;;17.24;40.82;98504.66;5072403;28;20036;-59
2021/05/21 08:08:21;;;;;;;5.72;2.00;;;;;;;16.94;42.22;98512.31;5071995;28;20040;-59
2021/05/21 08:10:50;;;;;;;;;;;;;;;17.92;38.28;98518.31;5072215;28;20032;-59
2021/05/21 08:13:15;;;;;;;7.18;1.77;;;;;;;16.14;41.41;98510.78;5071469;28;19943;-59
2021/05/21 08:15:41;;;;;;;8.07;1.95;;;;;;;16.84;40.28;98501.69;5070721;28;20371;-59
2021/05/21 08:18:07;;;;;;;5.30;1.63;;;;;;;16.07;41.36;98513.06;5072370;28;20060;-58
2021/05/21 08:20:32;;;;;;;6.63;2.20;;;;;;;16.56;40.15;98514.38;5070651;28;20036;-59
2021/05/21 08:22:57;;;;;;;5.72;1.63;;;;;;;15.89;41.39;98515.50;5072798;28;20025;-59
2021/05/21 08:25:23;;;;;;;6.63;2.03;;;;;;;15.70;42.01;98528.22;5075350;28;20047;-59
2021/05/21 08:27:49;;;;;;;5.25;2.08;;;;;;;15.43;41.71;98521.56;5076540;28;20089;-60
2021/05/21 08:30:15;;;;;;;5.10;2.22;;;;;;;17.44;38.11;98530.50;5076199;28;20025;-58
2021/05/21 08:32:41;;;;;;;5.13;1.70;;;;;;;17.60;38.23;98528.25;5075255;28;20027;-59
2021/05/21 08:35:06;;;;;;;8.65;1.73;;;;;;;17.38;38.38;98529.00;5076085;28;20028;-59
2021/05/21 08:37:32;;;;;;;6.57;2.05;;;;;;;16.79;39.10;98523.44;5075082;28;20112;-58
2021/05/21 08:39:57;;;;;;;6.00;1.67;;;;;;;17.48;38.02;98528.00;5076324;28;20074;-59
2021/05/21 08:42:23;;;;;;;6.72;2.13;;;;;;;17.17;39.32;98525.91;5075663;28;20040;-58
2021/05/21 08:44:51;;;;;;;8.70;1.90;;;;;;;16.66;40.94;98521.50;5076176;28;20532;-59
2021/05/21 08:47:17;;;;;;;6.25;2.00;;;;;;;16.67;41.67;98533.91;5074527;28;20398;-58
2021/05/21 08:49:43;;;;;;;8.38;2.15;;;;;;;17.92;39.40;98545.44;5076300;28;20031;-59
2021/05/21 08:52:09;;;;;;;6.18;1.92;;;;;;;17.72;39.44;98541.25;5075751;28;20513;-59
2021/05/21 08:54:36;;;;;;;11.98;2.58;;;;;;;19.01;37.76;98548.63;5075851;28;20032;-59
2021/05/21 08:57:08;;;;;;;4.25;1.70;;;;;;;18.13;38.77;98529.50;5075445;28;20041;-59
2021/05/21 08:59:34;;;;;;;6.63;1.85;;;;;;;17.59;38.50;98529.34;5075725;28;20208;-59
2021/05/21 09:01:59;;;;;;;13.93;2.25;;;;;;;16.52;40.64;98527.69;5075276;28;20124;-59
2021/05/21 09:04:57;;;;;;;7.75;2.17;;;;;;;16.50;41.01;98535.31;5075769;28;20056;-59
2021/05/21 09:07:27;;;;;;;13.35;2.30;;;;;;;17.97;38.35;98546.13;5075063;28;20049;-59
2021/05/21 09:09:53;;;;;;;11.60;2.50;;;;;;;17.22;38.72;98531.22;5074442;28;20032;-59
2021/05/21 09:12:19;;;;;;;6.97;1.73;;;;;;;16.78;39.86;98547.00;5075172;28;20064;-59
2021/05/21 09:15:03;;;;;;;7.25;2.17;;;;;;;16.87;38.15;98522.72;5075726;28;20431;-58
2021/05/21 09:17:29;;;;;;;7.10;1.85;;;;;;;16.66;39.24;98533.13;5075398;28;20036;-59
2021/05/21 09:19:54;;;;;;;6.65;2.00;;;;;;;15.68;40.20;98515.00;5075687;28;20479;-59
2021/05/21 09:22:20;;;;;;;18.40;3.75;;;;;;;17.32;38.38;98522.88;5073611;28;20040;-59
2021/05/21 09:24:45;;;;;;;5.13;1.75;;;;;;;16.18;38.20;98525.31;5075735;28;20521;-59
2021/05/21 09:27:12;;;;;;;3.55;1.85;;;;;;;17.56;36.41;98519.13;5075651;28;20120;-59
2021/05/21 09:29:45;;;;;;;7.40;2.22;;;;;;;16.46;38.22;98518.06;5075710;28;20068;-60
2021/05/21 09:32:27;;;;;;;7.22;2.00;;;;;;;16.24;39.72;98515.22;5073459;28;20029;-59
2021/05/21 09:35:03;;;;;;;5.43;2.15;;;;;;;17.09;37.40;98530.16;5075177;28;20096;-60
2021/05/21 09:37:28;;;;;;;8.43;2.13;;;;;;;17.06;37.56;98535.38;5074019;28;20047;-59
2021/05/21 09:40:13;;;;;;;6.63;1.80;;;;;;;16.55;38.26;98543.34;5075182;28;20029;-59
2021/05/21 09:42:44;;;;;;;11.00;2.10;;;;;;;16.67;37.59;98523.09;5074671;28;20563;-59
2021/05/21 09:45:30;;;;;;;7.28;1.98;;;;;;;16.83;37.39;98537.19;5074438;28;20032;-59
2021/05/21 09:48:03;;;;;;;7.10;2.15;;;;;;;17.27;36.95;98543.88;5073363;28;20411;-59
2021/05/21 09:50:50;;;;;;;6.68;1.83;;;;;;;17.17;36.84;98542.16;5074338;28;20036;-59
2021/05/21 09:53:22;;;;;;;8.43;2.20;;;;;;;17.02;37.66;98538.69;5074580;28;20072;-59
2021/05/21 09:55:57;;;;;;;12.15;2.05;;;;;;;16.92;37.98;98536.16;5074287;28;20119;-59
2021/05/21 09:58:36;;;;;;;7.88;2.03;;;;;;;17.71;37.15;98543.16;5074766;28;20127;-59
2021/05/21 10:01:18;;;;;;;5.03;1.67;;;;;;;16.94;38.43;98533.16;5074461;28;20032;-59
2021/05/21 10:03:45;;;;;;;10.13;1.90;;;;;;;17.16;37.10;98546.00;5074641;28;20039;-59
2021/05/21 10:06:11;;;;;;;11.43;2.45;;;;;;;18.75;35.70;98535.75;5074021;28;20036;-59
2021/05/21 10:08:39;;;;;;;10.02;2.03;;;;;;;18.13;35.49;98530.28;5074183;28;20467;-59
2021/05/21 10:11:08;;;;;;;5.70;1.88;;;;;;;16.63;37.08;98539.13;5073747;28;20059;-60
2021/05/21 10:13:33;;;;;;;8.57;2.20;;;;;;;16.40;37.96;98519.28;5072949;28;20075;-59
2021/05/21 10:15:59;;;;;;;4.80;1.90;;;;;;;17.58;36.22;98538.59;5073620;28;20351;-59
2021/05/21 10:18:25;;;;;;;7.72;2.25;;;;;;;18.41;35.07;98551.84;5072740;28;20043;-59
2021/05/21 10:20:51;;;;;;;6.20;2.03;;;;;;;19.63;33.66;98541.41;5072341;28;20040;-59
2021/05/21 10:23:19;;;;;;;7.20;2.00;;;;;;;19.30;32.82;98530.97;5072861;28;20348;-59
2021/05/21 10:25:45;;;;;;;6.15;2.10;;;;;;;19.32;33.18;98534.16;5073745;28;20032;-59
2021/05/21 10:28:10;;;;;;;7.45;2.20;;;;;;;18.08;35.02;98516.84;5072957;28;20036;-59
2021/05/21 10:30:36;;;;;;;6.88;2.00;;;;;;;18.69;33.61;98531.53;5056132;28;20032;-59
2021/05/21 10:33:20;;;;;;;8.57;2.58;;;;;;;18.32;34.26;98532.78;5074237;28;20475;-59
2021/05/21 10:35:45;;;;;;;6.18;2.00;;;;;;;17.55;35.15;98522.97;5074140;28;20060;-59
2021/05/21 10:38:24;;;;;;;7.05;2.00;;;;;;;18.84;32.53;98522.22;5072938;28;20059;-59
2021/05/21 10:41:15;;;;;;;11.80;2.08;;;;;;;18.26;32.42;98529.41;5074051;28;20376;-59
2021/05/21 10:43:51;;;;;;;6.80;2.17;;;;;;;17.34;33.46;98523.38;5072825;28;20107;-59
2021/05/21 10:46:17;;;;;;;10.82;2.58;;;;;;;17.59;32.82;98526.66;5072314;28;20102;-59
2021/05/21 10:48:52;;;;;;;8.27;2.00;;;;;;;18.10;32.35;98518.16;5072912;28;20131;-59
2021/05/21 10:51:18;;;;;;;6.65;1.92;;;;;;;18.79;32.79;98524.28;5073920;28;20090;-59
2021/05/21 10:53:46;;;;;;;10.50;2.30;;;;;;;18.82;31.12;98512.78;5056332;28;20414;-59
2021/05/21 10:56:12;;;;;;;5.95;2.13;;;;;;;18.49;32.30;98523.94;5072203;28;20037;-60
2021/05/21 10:58:43;;;;;;;7.95;1.75;;;;;;;17.63;32.22;98516.81;5073776;28;20505;-58
2021/05/21 11:01:10;;;;;;;7.47;2.00;;;;;;;17.40;32.76;98527.59;5072977;28;20554;-60
2021/05/21 11:04:01;;;;;;;6.68;2.20;;;;;;;17.29;34.02;98517.28;5073696;28;20035;-58
2021/05/21 11:06:31;;;;;;;8.65;2.00;;;;;;;18.04;33.35;98521.28;5073288;28;20041;-59
2021/05/21 11:09:06;;;;;;;7.43;2.13;;;;;;;17.83;33.94;98510.94;5073336;28;20124;-59
2021/05/21 11:12:05;;;;;;;8.02;2.10;;;;;;;18.61;33.19;98509.81;5073311;28;20063;-59
2021/05/21 11:14:32;;;;;;;6.35;2.08;;;;;;;18.36;32.83;98505.84;5069155;28;20039;-59
2021/05/21 11:17:10;;;;;;;8.18;2.00;;;;;;;18.15;32.62;98519.16;5073016;28;20035;-58
2021/05/21 11:19:36;;;;;;;7.03;1.88;;;;;;;18.26;31.41;98523.97;5073587;28;20024;-60
2021/05/21 11:22:06;;;;;;;6.53;1.98;;;;;;;18.88;31.14;98501.47;5073024;28;20055;-58
2021/05/21 11:24:37;;;;;;;7.30;2.50;;;;;;;18.22;32.06;98501.31;5073345;28;20103;-58
2021/05/21 11:27:02;;;;;;;5.82;2.08;;;;;;;17.73;33.35;98496.81;5072716;28;20033;-59
2021/05/21 11:29:28;;;;;;;7.45;2.55;;;;;;;17.75;34.13;98500.81;5073024;28;20116;-61
2021/05/21 11:31:53;;;;;;;7.38;1.95;;;;;;;17.61;33.45;98492.72;5072715;28;20055;-59
2021/05/21 11:34:19;;;;;;;14.07;3.08;;;;;;;17.45;34.98;98510.44;5073082;28;20129;-59